Time;durP1;ratioP1;P1;durP2;ratioP2;P2;SDS_P1;SDS_P2;PMS_P1;PMS_P2;Temp;Humidity;BMP_temperature;BMP_pressure;BME280_temperature;BME280_humidity;BME280_pressure;Samples;Min_cycle;Max_cycle;Signal;HPM_P1;HPM_P2
2022/03/20 00:00:47;;;;;;;;;;;;;;;5.75;38.35;103068.39;1749581;80;20117;-88
2022/03/20 00:03:12;;;;;;;;;;;;;;;5.75;38.39;103064.45;1755726;80;20250;-84
2022/03/20 00:05:39;;;;;;;;;;;;;;;5.73;38.43;103069.34;1760616;80;20156;-87
2022/03/20 00:08:08;;;;;;;;;;;;;;;5.71;38.45;103064.14;1762176;80;21118;-90
2022/03/20 00:10:34;;;;;;;;;;;;;;;5.73;38.49;103068.02;1759578;80;20181;-87
2022/03/20 00:13:00;;;;;;;;;;;;;;;5.62;38.75;103061.83;1762585;80;20131;-91
2022/03/20 00:15:27;;;;;;;;;;;;;;;5.65;38.67;103061.73;1752948;80;20208;-91
2022/03/20 00:17:53;;;;;;;;;;;;;;;5.62;38.80;103063.14;1762312;80;20177;-84
2022/03/20 00:20:18;;;;;;;;;;;;;;;5.64;38.74;103062.66;1753837;80;21095;-88
2022/03/20 00:22:44;;;;;;;;;;;;;;;5.63;38.61;103060.94;1757360;80;20295;-90
2022/03/20 00:25:11;;;;;;;;;;;;;;;5.47;38.94;103061.91;1752873;80;20160;-87
2022/03/20 00:27:37;;;;;;;;;;;;;;;5.45;39.03;103065.02;1757698;80;21685;-89
2022/03/20 00:30:03;;;;;;;;;;;;;;;5.44;38.94;103058.52;1757479;80;20155;-89
2022/03/20 00:32:28;;;;;;;;;;;;;;;5.46;38.87;103055.41;1762414;80;21184;-89
2022/03/20 00:34:57;;;;;;;;;;;;;;;5.45;38.78;103053.69;1760044;80;20720;-88
2022/03/20 00:37:21;;;;;;;;;;;;;;;5.36;38.83;103058.34;1757088;80;20334;-88
2022/03/20 00:39:47;;;;;;;;;;;;;;;5.40;38.75;103055.99;1759902;80;20228;-90
2022/03/20 00:42:12;;;;;;;;;;;;;;;5.50;38.49;103054.38;1752183;80;20171;-84
2022/03/20 00:44:38;;;;;;;;;;;;;;;5.48;38.29;103053.59;1751802;80;21993;-88
2022/03/20 00:47:04;;;;;;;;;;;;;;;5.51;38.13;103053.02;1721905;82;20140;-89
2022/03/20 00:49:30;;;;;;;;;;;;;;;5.52;38.17;103055.20;1697535;82;20132;-90
2022/03/20 00:51:56;;;;;;;;;;;;;;;5.62;38.00;103051.81;1695956;83;20217;-91
2022/03/20 00:54:22;;;;;;;;;;;;;;;5.49;38.18;103052.69;1702097;83;20125;-86
2022/03/20 00:56:47;;;;;;;;;;;;;;;5.44;38.24;103056.77;1709734;83;21139;-89
2022/03/20 00:59:13;;;;;;;;;;;;;;;5.37;38.15;103057.41;1716240;83;20175;-88
2022/03/20 01:01:38;;;;;;;;;;;;;;;5.36;38.33;103058.34;1708808;83;20167;-90
2022/03/20 01:04:04;;;;;;;;;;;;;;;5.18;38.77;103058.92;1710686;83;20138;-87
2022/03/20 01:06:31;;;;;;;;;;;;;;;5.12;38.79;103060.43;1717224;83;20207;-92
2022/03/20 01:08:58;;;;;;;;;;;;;;;5.26;38.52;103056.91;1709376;83;21154;-88
2022/03/20 01:11:23;;;;;;;;;;;;;;;5.31;38.47;103056.30;1715767;83;20117;-85
2022/03/20 01:13:49;;;;;;;;;;;;;;;5.36;38.38;103064.89;1713815;83;20686;-86
2022/03/20 01:16:15;;;;;;;;;;;;;;;5.18;38.81;103068.09;1711542;83;20435;-84
2022/03/20 01:18:40;;;;;;;;;;;;;;;4.87;39.35;103070.36;1714844;83;20184;-91
2022/03/20 01:21:07;;;;;;;;;;;;;;;4.80;39.60;103068.81;1717460;83;22318;-87
2022/03/20 01:23:33;;;;;;;;;;;;;;;4.88;39.32;103073.39;1712509;83;20485;-88
2022/03/20 01:25:59;;;;;;;;;;;;;;;4.96;39.10;103069.23;1715856;83;20274;-84
2022/03/20 01:28:24;;;;;;;;;;;;;;;4.85;39.40;103067.78;1712150;83;20527;-86
2022/03/20 01:30:50;;;;;;;;;;;;;;;4.89;39.35;103072.93;1716155;83;20152;-87
2022/03/20 01:33:16;;;;;;;;;;;;;;;4.91;38.91;103071.11;1715916;83;21152;-91
2022/03/20 01:35:42;;;;;;;;;;;;;;;4.93;38.91;103061.00;1721311;83;20179;-85
2022/03/20 01:38:07;;;;;;;;;;;;;;;4.95;38.90;103063.11;1711935;83;20434;-89
2022/03/20 01:40:33;;;;;;;;;;;;;;;4.71;39.74;103053.39;1712189;83;20132;-83
2022/03/20 01:42:59;;;;;;;;;;;;;;;4.63;40.05;103059.73;1708875;81;20240;-88
2022/03/20 01:45:25;;;;;;;;;;;;;;;4.66;39.86;103064.88;1718185;83;21074;-91
2022/03/20 01:47:51;;;;;;;;;;;;;;;4.67;39.98;103060.02;1714146;83;20120;-86
2022/03/20 01:50:18;;;;;;;;;;;;;;;4.59;40.24;103058.09;1706220;83;20109;-84
2022/03/20 01:52:45;;;;;;;;;;;;;;;4.35;41.04;103057.06;1709322;83;20093;-85
2022/03/20 01:55:11;;;;;;;;;;;;;;;4.19;41.46;103059.23;1715440;83;20093;-84
2022/03/20 01:57:38;;;;;;;;;;;;;;;4.08;41.84;103058.22;1711421;83;21642;-85
2022/03/20 02:00:08;;;;;;;;;;;;;;;4.22;41.38;103063.53;1712299;83;20113;-85
2022/03/20 02:02:33;;;;;;;;;;;;;;;4.31;41.08;103058.89;1707478;83;20138;-84
2022/03/20 02:04:59;;;;;;;;;;;;;;;4.41;40.88;103056.02;1710163;83;20090;-83
2022/03/20 02:07:25;;;;;;;;;;;;;;;4.35;41.47;103061.42;1709870;83;20651;-87
2022/03/20 02:09:51;;;;;;;;;;;;;;;4.27;41.61;103062.52;1710506;83;21816;-89
2022/03/20 02:12:17;;;;;;;;;;;;;;;4.32;41.35;103059.77;1715931;83;20168;-86
2022/03/20 02:14:42;;;;;;;;;;;;;;;4.11;42.07;103062.52;1715407;83;20180;-82
2022/03/20 02:17:10;;;;;;;;;;;;;;;3.83;42.85;103059.34;1711491;83;20248;-88
2022/03/20 02:19:37;;;;;;;;;;;;;;;3.67;43.42;103071.10;1708571;83;20237;-86
2022/03/20 02:22:03;;;;;;;;;;;;;;;3.57;43.82;103066.11;1690848;83;21149;-86
2022/03/20 02:24:43;;;;;;;;;;;;;;;3.48;43.88;103067.64;1713579;83;20105;-85
2022/03/20 02:27:19;;;;;;;;;;;;;;;3.44;43.99;103064.69;1709583;83;20098;-87
2022/03/20 02:29:42;;;;;;;;;;;;;;;3.29;44.41;103065.05;1711105;83;20097;-84
2022/03/20 02:32:08;;;;;;;;;;;;;;;3.18;44.68;103058.32;1714729;83;20172;-84
2022/03/20 02:34:34;;;;;;;;;;;;;;;3.22;44.79;103057.36;1712379;82;21826;-87
2022/03/20 02:37:00;;;;;;;;;;;;;;;3.21;45.05;103052.18;1709804;83;20142;-90
2022/03/20 02:39:26;;;;;;;;;;;;;;;3.18;44.87;103055.71;1709058;83;20203;-90
2022/03/20 02:41:54;;;;;;;;;;;;;;;3.16;45.12;103053.59;1710655;83;20781;-84
2022/03/20 02:44:19;;;;;;;;;;;;;;;3.22;44.71;103056.52;1708974;83;20139;-88
2022/03/20 02:46:45;;;;;;;;;;;;;;;3.41;44.08;103063.45;1708553;83;21006;-91
2022/03/20 02:49:11;;;;;;;;;;;;;;;3.41;44.21;103059.53;1710271;83;20297;-86
2022/03/20 02:51:37;;;;;;;;;;;;;;;3.47;43.83;103054.62;1712015;83;21259;-90
2022/03/20 02:54:03;;;;;;;;;;;;;;;3.45;43.65;103058.58;1707922;83;20117;-87
2022/03/20 02:56:29;;;;;;;;;;;;;;;3.39;43.55;103053.50;1710894;83;20209;-88
2022/03/20 02:58:55;;;;;;;;;;;;;;;3.36;43.45;103054.88;1708791;83;20399;-88
2022/03/20 03:01:21;;;;;;;;;;;;;;;3.47;43.03;103052.85;1712414;83;20251;-82
2022/03/20 03:03:46;;;;;;;;;;;;;;;3.47;42.95;103056.77;1710438;83;20141;-86
2022/03/20 03:06:13;;;;;;;;;;;;;;;3.56;42.48;103055.70;1711637;83;20636;-89
2022/03/20 03:11:23;;;;;;;;;;;;;;;3.63;42.64;103054.63;1713132;83;20086;-84
2022/03/20 03:13:48;;;;;;;;;;;;;;;3.71;42.36;103056.61;1710653;83;20195;-88
2022/03/20 03:16:14;;;;;;;;;;;;;;;3.63;42.42;103057.23;1716047;83;20140;-82
2022/03/20 03:18:44;;;;;;;;;;;;;;;3.52;42.67;103054.89;1708986;83;20070;-86
2022/03/20 03:21:11;;;;;;;;;;;;;;;3.64;42.28;103052.89;1714860;83;20108;-84
2022/03/20 03:23:36;;;;;;;;;;;;;;;3.70;42.10;103055.34;1714350;83;21181;-87
2022/03/20 03:26:02;;;;;;;;;;;;;;;3.76;41.96;103053.42;1712128;82;20156;-85
2022/03/20 03:28:34;;;;;;;;;;;;;;;3.74;42.14;103057.84;1709162;83;20191;-88
2022/03/20 03:31:00;;;;;;;;;;;;;;;3.78;42.16;103058.61;1709623;83;20194;-88
2022/03/20 03:33:26;;;;;;;;;;;;;;;3.72;42.45;103060.07;1709802;83;20165;-90
2022/03/20 03:35:53;;;;;;;;;;;;;;;3.62;42.64;103057.27;1707276;83;21134;-85
2022/03/20 03:38:21;;;;;;;;;;;;;;;3.44;43.14;103056.84;1705088;83;20280;-91
2022/03/20 03:40:47;;;;;;;;;;;;;;;3.27;43.55;103059.87;1710034;83;20161;-87
2022/03/20 03:43:17;;;;;;;;;;;;;;;3.06;44.05;103058.61;1708428;83;20184;-89
2022/03/20 03:45:43;;;;;;;;;;;;;;;3.07;44.00;103059.48;1708395;83;20236;-89
2022/03/20 03:48:09;;;;;;;;;;;;;;;3.18;43.51;103060.93;1710613;83;20930;-90
2022/03/20 03:50:36;;;;;;;;;;;;;;;3.27;43.30;103065.55;1711038;83;20113;-91
2022/03/20 03:53:03;;;;;;;;;;;;;;;3.34;43.09;103064.06;1709089;83;20172;-91
2022/03/20 03:55:30;;;;;;;;;;;;;;;3.19;43.60;103065.27;1713664;83;20517;-85
2022/03/20 03:57:56;;;;;;;;;;;;;;;2.85;44.58;103058.20;1712261;83;20556;-90
2022/03/20 04:00:21;;;;;;;;;;;;;;;2.79;44.65;103066.63;1710855;83;21242;-88
2022/03/20 04:02:48;;;;;;;;;;;;;;;2.85;44.57;103063.42;1714934;83;20196;-88
2022/03/20 04:05:20;;;;;;;;;;;;;;;2.79;44.81;103067.47;1719357;83;20148;-89
2022/03/20 04:07:47;;;;;;;;;;;;;;;2.67;44.97;103072.53;1712864;81;20223;-86
2022/03/20 04:10:13;;;;;;;;;;;;;;;2.59;45.30;103074.42;1714596;83;20215;-89
2022/03/20 04:12:43;;;;;;;;;;;;;;;2.57;45.45;103072.75;1707496;83;21143;-86
2022/03/20 04:15:12;;;;;;;;;;;;;;;2.65;45.36;103078.66;1709552;81;20187;-86
2022/03/20 04:17:38;;;;;;;;;;;;;;;2.67;45.20;103082.09;1711892;83;20161;-87
2022/03/20 04:20:06;;;;;;;;;;;;;;;2.57;45.57;103078.82;1709744;83;20153;-85
2022/03/20 04:22:31;;;;;;;;;;;;;;;2.60;45.81;103082.67;1711938;83;20488;-86
2022/03/20 04:24:57;;;;;;;;;;;;;;;2.56;45.87;103079.70;1711384;83;21202;-91
2022/03/20 04:27:22;;;;;;;;;;;;;;;2.66;45.50;103075.17;1715506;83;20927;-91
2022/03/20 04:29:48;;;;;;;;;;;;;;;2.62;45.28;103081.34;1716762;83;20228;-87
2022/03/20 04:32:14;;;;;;;;;;;;;;;2.78;44.81;103072.30;1712658;82;20580;-91
2022/03/20 04:34:41;;;;;;;;;;;;;;;2.73;44.98;103078.05;1712126;83;20233;-91
2022/03/20 04:37:08;;;;;;;;;;;;;;;2.79;44.90;103076.61;1713244;83;21106;-89
2022/03/20 04:39:34;;;;;;;;;;;;;;;2.80;45.03;103077.48;1707649;83;20496;-89
2022/03/20 04:42:00;;;;;;;;;;;;;;;2.75;45.14;103080.20;1711057;83;20269;-89
2022/03/20 04:44:25;;;;;;;;;;;;;;;2.74;45.28;103077.16;1714235;83;20253;-86
2022/03/20 04:46:52;;;;;;;;;;;;;;;2.75;45.11;103076.28;1713755;83;20940;-90
2022/03/20 05:00:12;;;;;;;;;;;;;;;3.19;44.09;103082.70;1708435;83;20177;-83
2022/03/20 05:02:39;;;;;;;;;;;;;;;2.97;44.46;103084.49;1709625;83;21094;-86
2022/03/20 05:05:05;;;;;;;;;;;;;;;3.14;44.05;103082.80;1704086;83;20124;-86
2022/03/20 05:07:32;;;;;;;;;;;;;;;3.22;43.93;103093.92;1703975;83;20474;-86
2022/03/20 05:13:30;;;;;;;;;;;;;;;3.40;43.40;103099.60;1707722;83;20660;-85
2022/03/20 05:15:16;;;;;;;;;;;;;;;3.35;43.47;103106.70;1692169;82;20125;-87
2022/03/20 05:17:42;;;;;;;;;;;;;;;3.46;43.28;103099.91;1705811;83;20167;-88
2022/03/20 05:20:08;;;;;;;;;;;;;;;3.48;43.43;103101.61;1705736;83;20171;-88
2022/03/20 05:22:39;;;;;;;;;;;;;;;3.52;43.27;103099.30;1707566;83;20170;-88
2022/03/20 05:25:08;;;;;;;;;;;;;;;3.53;43.12;103102.34;1706209;82;20558;-87
2022/03/20 05:27:33;;;;;;;;;;;;;;;3.49;43.19;103108.53;1707444;83;22085;-89
2022/03/20 05:29:59;;;;;;;;;;;;;;;3.48;43.13;103108.56;1703875;83;20101;-88
2022/03/20 05:32:25;;;;;;;;;;;;;;;3.64;42.78;103114.30;1707674;83;20157;-87
2022/03/20 05:34:51;;;;;;;;;;;;;;;3.72;42.71;103119.73;1706677;83;20196;-82
2022/03/20 05:37:16;;;;;;;;;;;;;;;3.80;42.46;103120.84;1706533;83;20697;-86
2022/03/20 05:39:42;;;;;;;;;;;;;;;3.80;42.36;103126.53;1707661;83;21180;-86
2022/03/20 05:42:08;;;;;;;;;;;;;;;3.75;42.10;103128.80;1705777;83;20619;-88
2022/03/20 05:44:34;;;;;;;;;;;;;;;3.84;42.19;103129.03;1706505;83;20506;-89
2022/03/20 05:47:00;;;;;;;;;;;;;;;3.96;42.04;103130.45;1708222;81;20753;-89
2022/03/20 05:49:25;;;;;;;;;;;;;;;4.00;41.82;103128.64;1707490;83;20191;-88
2022/03/20 05:51:51;;;;;;;;;;;;;;;4.12;41.86;103136.16;1702097;82;21172;-86
2022/03/20 05:54:17;;;;;;;;;;;;;;;4.07;41.54;103131.48;1709122;83;20327;-88
2022/03/20 05:59:27;;;;;;;;;;;;;;;4.34;41.19;103132.52;1698272;83;21023;-86
2022/03/20 06:01:53;;;;;;;;;;;;;;;4.44;40.90;103129.19;1706959;83;20326;-86
2022/03/20 06:04:19;;;;;;;;;;;;;;;4.55;40.57;103136.28;1703415;83;21034;-87
2022/03/20 06:06:45;;;;;;;;;;;;;;;4.58;40.32;103134.88;1705103;83;20193;-88
2022/03/20 06:09:11;;;;;;;;;;;;;;;4.70;40.14;103140.69;1697649;83;20160;-89
2022/03/20 06:11:36;;;;;;;;;;;;;;;4.70;39.81;103143.31;1700726;83;20653;-88
2022/03/20 06:14:03;;;;;;;;;;;;;;;4.74;39.67;103142.30;1734315;80;20164;-91
2022/03/20 06:16:28;;;;;;;;;;;;;;;4.80;39.34;103140.81;1745939;80;20988;-96
2022/03/20 06:18:56;;;;;;;;;;;;;;;4.79;39.08;103140.43;1752758;81;20246;-88
2022/03/20 06:21:25;;;;;;;;;;;;;;;4.94;38.87;103146.53;1693518;83;20133;-91
2022/03/20 06:23:53;;;;;;;;;;;;;;;4.91;38.48;103146.62;1751680;81;20181;-86
2022/03/20 06:26:19;;;;;;;;;;;;;;;5.01;38.34;103146.73;1748016;80;20158;-93
2022/03/20 06:28:45;;;;;;;;;;;;;;;5.02;38.28;103153.70;1747774;80;21032;-86
2022/03/20 06:31:12;;;;;;;;;;;;;;;5.16;38.17;103155.06;1753121;81;20482;-91
2022/03/20 06:33:38;;;;;;;;;;;;;;;5.17;37.84;103158.06;1754647;80;20126;-92
2022/03/20 06:36:04;;;;;;;;;;;;;;;5.20;37.85;103159.28;1753762;80;20159;-91
2022/03/20 06:38:30;;;;;;;;;;;;;;;5.18;37.74;103158.48;1751864;80;20259;-89
2022/03/20 06:40:56;;;;;;;;;;;;;;;5.24;37.76;103160.91;1753290;80;21276;-89
2022/03/20 06:43:23;;;;;;;;;;;;;;;5.29;38.15;103162.92;1750484;80;20174;-88
2022/03/20 06:45:50;;;;;;;;;;;;;;;5.39;38.20;103163.06;1752283;81;20439;-88
2022/03/20 06:48:16;;;;;;;;;;;;;;;5.45;38.34;103166.38;1759991;80;20647;-89
2022/03/20 06:50:41;;;;;;;;;;;;;;;5.51;38.38;103171.44;1758222;80;20119;-85
2022/03/20 06:53:07;;;;;;;;;;;;;;;5.59;38.47;103164.17;1761020;80;21180;-90
2022/03/20 06:55:33;;;;;;;;;;;;;;;5.68;38.47;103169.13;1751288;80;20364;-88
2022/03/20 06:57:58;;;;;;;;;;;;;;;5.67;38.67;103166.12;1751267;80;20179;-85
2022/03/20 07:00:26;;;;;;;;;;;;;;;5.79;38.70;103160.06;1757683;80;20269;-87
2022/03/20 07:03:03;;;;;;;;;;;;;;;5.83;38.80;103174.33;1757404;80;20257;-83
2022/03/20 07:05:28;;;;;;;;;;;;;;;5.86;39.05;103162.89;1762754;80;20096;-88
2022/03/20 07:07:54;;;;;;;;;;;;;;;5.93;39.22;103163.07;1768151;80;20135;-87
2022/03/20 07:10:23;;;;;;;;;;;;;;;6.03;39.21;103167.14;1754451;80;20147;-87
2022/03/20 07:12:50;;;;;;;;;;;;;;;6.07;38.98;103166.11;1757245;80;20153;-87
2022/03/20 07:15:18;;;;;;;;;;;;;;;6.14;38.99;103173.77;1757126;80;20343;-85
2022/03/20 07:17:45;;;;;;;;;;;;;;;6.23;38.22;103174.77;1755232;80;21241;-88
2022/03/20 07:20:11;;;;;;;;;;;;;;;6.32;37.92;103170.52;1757320;80;20383;-88
2022/03/20 07:22:37;;;;;;;;;;;;;;;6.37;37.48;103176.91;1763148;80;20114;-85
2022/03/20 07:30:32;;;;;;;;;;;;;;;6.53;37.51;103165.44;1763293;80;20130;-88
2022/03/20 07:32:58;;;;;;;;;;;;;;;6.75;37.47;103165.51;1768588;80;20150;-84
2022/03/20 07:35:24;;;;;;;;;;;;;;;6.85;37.43;103164.70;1766941;80;20104;-88
2022/03/20 07:37:53;;;;;;;;;;;;;;;7.01;37.06;103156.65;1760327;80;20110;-90
2022/03/20 07:40:18;;;;;;;;;;;;;;;7.12;36.75;103157.55;1762948;80;20193;-88
2022/03/20 07:42:44;;;;;;;;;;;;;;;7.16;36.44;103163.95;1761127;80;21946;-89
2022/03/20 07:45:10;;;;;;;;;;;;;;;7.36;36.51;103168.42;1762238;80;20274;-86
2022/03/20 07:47:35;;;;;;;;;;;;;;;7.34;36.30;103157.56;1746304;80;20759;-87
2022/03/20 07:50:02;;;;;;;;;;;;;;;7.37;36.03;103153.50;1739285;81;20193;-93
2022/03/20 07:52:28;;;;;;;;;;;;;;;7.47;35.98;103154.86;1737348;81;20207;-90
2022/03/20 07:54:54;;;;;;;;;;;;;;;7.57;35.49;103147.88;1735825;81;22287;-91
2022/03/20 07:57:20;;;;;;;;;;;;;;;7.64;35.38;103144.09;1735875;81;20292;-83
2022/03/20 07:59:46;;;;;;;;;;;;;;;7.79;35.13;103156.61;1735501;81;20335;-87
2022/03/20 08:02:12;;;;;;;;;;;;;;;7.83;35.10;103158.64;1737709;81;20202;-86
2022/03/20 08:04:38;;;;;;;;;;;;;;;7.87;35.34;103154.50;1739402;81;20599;-88
2022/03/20 08:07:04;;;;;;;;;;;;;;;7.89;35.03;103155.32;1746272;81;21122;-87
2022/03/20 08:09:30;;;;;;;;;;;;;;;7.93;35.07;103157.83;1744259;81;20169;-85
2022/03/20 08:11:56;;;;;;;;;;;;;;;7.95;34.61;103159.92;1748503;82;20149;-84
2022/03/20 08:14:22;;;;;;;;;;;;;;;8.03;34.91;103160.44;1739206;81;20191;-82
2022/03/20 08:16:49;;;;;;;;;;;;;;;8.13;34.44;103158.30;1732548;81;20204;-82
2022/03/20 08:19:16;;;;;;;;;;;;;;;8.24;34.29;103160.00;1738133;81;21194;-85
2022/03/20 08:21:43;;;;;;;;;;;;;;;8.27;33.92;103161.17;1737059;81;20200;-85
2022/03/20 08:24:09;;;;;;;;;;;;;;;8.19;32.60;103164.14;1737102;81;20194;-85
2022/03/20 08:26:34;;;;;;;;;;;;;;;8.47;32.82;103161.66;1739512;81;20142;-85
2022/03/20 08:29:00;;;;;;;;;;;;;;;8.37;31.46;103158.98;1736733;81;20185;-85
2022/03/20 08:31:27;;;;;;;;;;;;;;;8.58;31.41;103159.39;1736423;81;21110;-82
2022/03/20 08:33:53;;;;;;;;;;;;;;;8.69;31.16;103163.33;1738556;81;20253;-81
2022/03/20 08:36:18;;;;;;;;;;;;;;;8.77;30.73;103159.88;1745454;81;20260;-81
2022/03/20 08:38:44;;;;;;;;;;;;;;;8.83;30.09;103158.75;1740687;82;20534;-83
2022/03/20 08:41:09;;;;;;;;;;;;;;;8.96;29.89;103160.75;1738929;81;20281;-85
2022/03/20 08:43:35;;;;;;;;;;;;;;;9.09;30.65;103163.66;1736807;81;21028;-82
2022/03/20 08:46:01;;;;;;;;;;;;;;;9.11;29.49;103162.27;1737160;81;20153;-84
2022/03/20 08:48:26;;;;;;;;;;;;;;;9.22;29.29;103163.08;1759466;80;20175;-82
2022/03/20 08:50:52;;;;;;;;;;;;;;;9.06;29.15;103162.93;1764994;80;20452;-87
2022/03/20 08:53:18;;;;;;;;;;;;;;;9.26;28.77;103157.59;1754356;80;20135;-84
2022/03/20 08:55:46;;;;;;;;;;;;;;;9.39;28.28;103151.73;1764147;80;21075;-82
2022/03/20 08:58:12;;;;;;;;;;;;;;;9.46;28.54;103153.13;1763604;80;20512;-85
2022/03/20 09:00:37;;;;;;;;;;;;;;;9.51;28.30;103153.77;1769961;80;20209;-85
2022/03/20 09:03:03;;;;;;;;;;;;;;;9.65;28.19;103155.73;1751681;80;20246;-86
2022/03/20 09:05:29;;;;;;;;;;;;;;;9.81;27.94;103147.91;1764194;80;20164;-80
2022/03/20 09:07:57;;;;;;;;;;;;;;;9.91;27.47;103150.92;1756208;80;21109;-85
2022/03/20 09:10:22;;;;;;;;;;;;;;;10.00;27.85;103145.17;1756812;80;20288;-81
2022/03/20 09:12:47;;;;;;;;;;;;;;;10.13;27.32;103138.78;1754785;80;20159;-83
2022/03/20 09:15:15;;;;;;;;;;;;;;;10.18;26.82;103138.95;1760706;80;20139;-84
2022/03/20 09:20:27;;;;;;;;;;;;;;;10.44;26.78;103131.48;1731862;80;20157;-82
2022/03/20 09:22:53;;;;;;;;;;;;;;;10.53;26.81;103138.05;1752356;80;21264;-84
2022/03/20 09:25:18;;;;;;;;;;;;;;;10.66;26.44;103135.14;1760881;80;20218;-86
2022/03/20 09:27:44;;;;;;;;;;;;;;;10.57;25.58;103139.60;1755333;80;20127;-83
2022/03/20 09:30:11;;;;;;;;;;;;;;;10.70;25.36;103130.05;1756205;80;20287;-83
2022/03/20 09:32:36;;;;;;;;;;;;;;;10.74;25.47;103139.53;1759693;80;21104;-83
2022/03/20 09:35:02;;;;;;;;;;;;;;;10.76;25.18;103135.01;1764083;80;20141;-82
2022/03/20 09:37:28;;;;;;;;;;;;;;;10.83;25.02;103134.67;1758397;80;20249;-80
2022/03/20 09:39:53;;;;;;;;;;;;;;;10.80;24.95;103132.20;1753343;80;20146;-80
2022/03/20 09:42:19;;;;;;;;;;;;;;;10.87;24.51;103130.94;1759735;80;20479;-81
2022/03/20 09:44:45;;;;;;;;;;;;;;;10.94;24.26;103127.03;1764401;80;21178;-82
2022/03/20 09:47:15;;;;;;;;;;;;;;;10.88;23.49;103120.75;1763918;80;20740;-82
2022/03/20 09:49:41;;;;;;;;;;;;;;;11.06;23.68;103121.50;1760625;80;20188;-81
2022/03/20 09:52:07;;;;;;;;;;;;;;;10.92;23.41;103113.89;1760370;80;20141;-84
2022/03/20 09:54:33;;;;;;;;;;;;;;;11.05;23.75;103115.85;1765659;80;20266;-84
2022/03/20 09:57:01;;;;;;;;;;;;;;;11.13;24.02;103114.46;1759982;80;20979;-81
2022/03/20 09:59:27;;;;;;;;;;;;;;;11.16;23.74;103115.25;1752460;80;20268;-82
2022/03/20 10:01:53;;;;;;;;;;;;;;;11.21;23.89;103111.86;1761431;80;20193;-81
2022/03/20 10:04:19;;;;;;;;;;;;;;;11.37;24.05;103113.16;1755308;80;20263;-79
2022/03/20 10:06:45;;;;;;;;;;;;;;;11.35;23.08;103111.92;1751710;80;20175;-82
2022/03/20 10:09:13;;;;;;;;;;;;;;;11.31;23.10;103115.67;1756576;80;21905;-81
2022/03/20 10:11:43;;;;;;;;;;;;;;;11.41;23.50;103116.86;1764596;80;20239;-84
2022/03/20 10:14:19;;;;;;;;;;;;;;;11.59;23.74;103114.08;1753497;80;20610;-82
2022/03/20 10:16:51;;;;;;;;;;;;;;;11.66;23.97;103101.72;1758781;80;21047;-82
2022/03/20 10:19:26;;;;;;;;;;;;;;;11.73;23.84;103104.87;1750589;80;20173;-82
2022/03/20 10:21:53;;;;;;;;;;;;;;;11.80;23.71;103103.55;1753475;80;21028;-84
2022/03/20 10:24:20;;;;;;;;;;;;;;;11.77;23.33;103097.11;1756062;80;20130;-85
2022/03/20 10:26:45;;;;;;;;;;;;;;;11.80;23.43;103090.80;1754343;80;20192;-81
2022/03/20 10:29:15;;;;;;;;;;;;;;;11.84;23.33;103091.84;1744839;80;21310;-79
2022/03/20 10:31:49;;;;;;;;;;;;;;;11.85;23.60;103092.23;1747334;80;20196;-80
2022/03/20 10:34:15;;;;;;;;;;;;;;;11.96;23.27;103086.77;1756482;80;22013;-81
2022/03/20 10:36:42;;;;;;;;;;;;;;;12.12;23.20;103084.03;1759744;80;20212;-83
2022/03/20 10:39:11;;;;;;;;;;;;;;;12.18;23.31;103081.02;1753794;80;20214;-80
2022/03/20 10:41:38;;;;;;;;;;;;;;;12.11;22.94;103077.89;1752993;80;20164;-86
2022/03/20 10:44:18;;;;;;;;;;;;;;;12.26;22.65;103085.84;1720260;81;20162;-82
2022/03/20 10:47:04;;;;;;;;;;;;;;;12.35;22.27;103087.92;1716904;80;40307;-85
2022/03/20 10:49:30;;;;;;;;;;;;;;;12.28;22.34;103089.27;1748839;80;20110;-82
2022/03/20 10:52:07;;;;;;;;;;;;;;;12.52;22.32;103083.77;1762010;80;20162;-81
2022/03/20 10:54:46;;;;;;;;;;;;;;;12.62;22.27;103088.00;1747694;80;20199;-83
2022/03/20 10:57:12;;;;;;;;;;;;;;;12.73;22.13;103087.32;1747444;80;20374;-83
2022/03/20 10:59:39;;;;;;;;;;;;;;;12.81;21.90;103085.02;1755552;80;21142;-84
2022/03/20 11:02:08;;;;;;;;;;;;;;;12.82;21.97;103081.42;1756095;80;20200;-85
2022/03/20 11:04:34;;;;;;;;;;;;;;;12.77;21.74;103078.23;1749652;80;20132;-82
2022/03/20 11:07:03;;;;;;;;;;;;;;;12.89;21.89;103079.22;1753641;80;20215;-84
2022/03/20 11:09:27;;;;;;;;;;;;;;;12.88;21.88;103083.69;1745303;80;20328;-81
2022/03/20 11:11:54;;;;;;;;;;;;;;;12.89;21.76;103069.45;1742392;80;20583;-82
2022/03/20 11:14:24;;;;;;;;;;;;;;;13.00;21.81;103057.30;1747737;80;20190;-85
2022/03/20 11:17:06;;;;;;;;;;;;;;;12.93;21.46;103062.17;1748887;80;20174;-82
2022/03/20 11:19:33;;;;;;;;;;;;;;;12.97;21.38;103055.70;1748746;80;20180;-81
2022/03/20 11:22:09;;;;;;;;;;;;;;;12.87;21.36;103050.15;1745455;80;20977;-82
2022/03/20 11:24:36;;;;;;;;;;;;;;;13.00;21.61;103045.38;1750330;80;21201;-82
2022/03/20 11:27:02;;;;;;;;;;;;;;;13.08;21.67;103047.03;1747006;80;20085;-82
2022/03/20 11:29:30;;;;;;;;;;;;;;;13.02;21.24;103035.50;1748159;80;20539;-82
2022/03/20 11:31:57;;;;;;;;;;;;;;;13.08;21.44;103037.29;1751545;80;20597;-82
2022/03/20 11:34:24;;;;;;;;;;;;;;;13.16;21.65;103030.61;1746279;80;20476;-79
2022/03/20 11:37:04;;;;;;;;;;;;;;;13.15;21.50;103024.45;1746139;80;21183;-80
2022/03/20 11:39:30;;;;;;;;;;;;;;;13.15;21.57;103019.64;1755496;80;20141;-80
2022/03/20 11:42:21;;;;;;;;;;;;;;;13.34;21.54;103009.98;1757784;80;20156;-80
2022/03/20 11:44:56;;;;;;;;;;;;;;;13.25;21.43;103004.33;1748003;80;20118;-80
2022/03/20 11:47:22;;;;;;;;;;;;;;;13.18;21.66;103008.33;1752717;80;20180;-80
2022/03/20 11:50:17;;;;;;;;;;;;;;;13.34;21.69;103007.34;1750817;80;21998;-80
2022/03/20 11:52:55;;;;;;;;;;;;;;;13.33;21.32;103005.17;1754182;80;20133;-79
2022/03/20 11:55:37;;;;;;;;;;;;;;;13.29;21.16;102999.66;1744445;80;20197;-80
2022/03/20 11:58:21;;;;;;;;;;;;;;;12.95;21.14;103001.91;1744434;80;20181;-81
2022/03/20 12:01:06;;;;;;;;;;;;;;;13.18;21.44;102992.41;1751816;80;20174;-79
2022/03/20 12:03:55;;;;;;;;;;;;;;;13.44;21.17;102993.83;1749150;80;21131;-82
2022/03/20 12:06:47;;;;;;;;;;;;;;;13.72;21.46;102982.59;1757723;80;20128;-79
2022/03/20 12:09:25;;;;;;;;;;;;;;;13.59;21.11;102975.48;1749919;80;20466;-81
2022/03/20 12:12:14;;;;;;;;;;;;;;;13.74;21.01;102970.08;1750436;80;20217;-78
2022/03/20 12:14:44;;;;;;;;;;;;;;;13.93;20.81;102978.44;1750652;80;20184;-79
2022/03/20 12:17:10;;;;;;;;;;;;;;;14.12;21.04;102969.16;1754110;80;20551;-79
2022/03/20 12:19:49;;;;;;;;;;;;;;;14.33;21.13;102964.95;1752247;80;20130;-80
2022/03/20 12:22:25;;;;;;;;;;;;;;;14.39;20.51;102961.47;1754365;80;20109;-78
2022/03/20 12:24:54;;;;;;;;;;;;;;;14.41;20.65;102962.22;1754647;80;20780;-80
2022/03/20 12:27:23;;;;;;;;;;;;;;;14.61;20.55;102968.28;1748368;80;20329;-79
2022/03/20 12:30:08;;;;;;;;;;;;;;;14.54;20.03;102965.20;1750933;80;22393;-80
2022/03/20 12:32:52;;;;;;;;;;;;;;;14.51;20.01;102960.56;1745972;80;20128;-80
2022/03/20 12:35:19;;;;;;;;;;;;;;;14.70;20.13;102946.32;1752019;80;20124;-79
2022/03/20 12:37:45;;;;;;;;;;;;;;;14.77;19.87;102943.20;1752237;80;20225;-81
2022/03/20 12:40:19;;;;;;;;;;;;;;;14.86;19.80;102940.69;1749831;80;20136;-80
2022/03/20 12:43:01;;;;;;;;;;;;;;;14.76;19.74;102934.38;1739215;80;21112;-79
2022/03/20 12:45:28;;;;;;;;;;;;;;;14.78;19.79;102939.09;1737769;80;20150;-81
2022/03/20 12:47:58;;;;;;;;;;;;;;;15.00;19.78;102934.33;1751896;80;20283;-80
2022/03/20 12:50:35;;;;;;;;;;;;;;;15.07;19.95;102934.23;1747428;80;20172;-82
2022/03/20 12:53:06;;;;;;;;;;;;;;;15.24;20.01;102928.08;1744399;80;20192;-81
2022/03/20 12:55:32;;;;;;;;;;;;;;;15.38;19.65;102930.55;1743724;80;21119;-80
2022/03/20 12:57:57;;;;;;;;;;;;;;;15.11;19.30;102930.84;1745771;80;20280;-81
2022/03/20 13:00:25;;;;;;;;;;;;;;;15.04;19.34;102929.64;1756238;80;20140;-80
2022/03/20 13:03:08;;;;;;;;;;;;;;;14.92;19.50;102924.76;1747162;80;20193;-79
2022/03/20 13:05:35;;;;;;;;;;;;;;;14.98;19.59;102924.78;1748329;80;20216;-80
2022/03/20 13:08:01;;;;;;;;;;;;;;;15.35;19.74;102920.12;1746993;80;21056;-82
2022/03/20 13:10:32;;;;;;;;;;;;;;;15.33;19.36;102922.05;1750136;80;20461;-81
2022/03/20 13:13:01;;;;;;;;;;;;;;;15.39;19.45;102923.39;1749449;80;20139;-82